sensor_id;sensor_type;location;lat;lon;timestamp;temperature;humidity
6373;DHT22;3219;51.362;7.074;2023-05-02T00:02:15;12.00;99.90
6373;DHT22;3219;51.362;7.074;2023-05-02T00:04:42;12.00;99.90
6373;DHT22;3219;51.362;7.074;2023-05-02T00:07:09;11.90;99.90
6373;DHT22;3219;51.362;7.074;2023-05-02T00:09:36;11.90;99.90
6373;DHT22;3219;51.362;7.074;2023-05-02T00:12:03;11.80;99.90
6373;DHT22;3219;51.362;7.074;2023-05-02T00:14:31;11.80;99.90
6373;DHT22;3219;51.362;7.074;2023-05-02T00:16:58;11.70;99.90
6373;DHT22;3219;51.362;7.074;2023-05-02T00:19:25;11.60;99.90
6373;DHT22;3219;51.362;7.074;2023-05-02T00:21:51;11.60;99.90
6373;DHT22;3219;51.362;7.074;2023-05-02T00:24:18;11.60;99.90
6373;DHT22;3219;51.362;7.074;2023-05-02T00:26:45;11.60;99.90
6373;DHT22;3219;51.362;7.074;2023-05-02T00:29:11;11.60;99.90
6373;DHT22;3219;51.362;7.074;2023-05-02T00:31:41;11.60;99.90
6373;DHT22;3219;51.362;7.074;2023-05-02T00:34:07;11.60;99.90
6373;DHT22;3219;51.362;7.074;2023-05-02T00:36:34;11.60;99.90
6373;DHT22;3219;51.362;7.074;2023-05-02T00:39:01;11.60;99.90
6373;DHT22;3219;51.362;7.074;2023-05-02T00:41:28;11.70;99.90
6373;DHT22;3219;51.362;7.074;2023-05-02T00:43:55;11.70;99.90
6373;DHT22;3219;51.362;7.074;2023-05-02T00:46:23;11.70;99.90
6373;DHT22;3219;51.362;7.074;2023-05-02T00:48:52;11.70;99.90
6373;DHT22;3219;51.362;7.074;2023-05-02T00:51:19;11.80;99.90
6373;DHT22;3219;51.362;7.074;2023-05-02T00:53:45;11.70;99.90
6373;DHT22;3219;51.362;7.074;2023-05-02T00:56:13;11.80;99.90
6373;DHT22;3219;51.362;7.074;2023-05-02T00:58:39;11.80;99.90
6373;DHT22;3219;51.362;7.074;2023-05-02T01:01:14;11.80;99.90
6373;DHT22;3219;51.362;7.074;2023-05-02T01:03:52;11.80;99.90
6373;DHT22;3219;51.362;7.074;2023-05-02T01:06:29;11.90;99.90
6373;DHT22;3219;51.362;7.074;2023-05-02T01:09:05;11.90;99.90
6373;DHT22;3219;51.362;7.074;2023-05-02T01:11:43;11.90;99.90
6373;DHT22;3219;51.362;7.074;2023-05-02T01:14:13;11.90;99.90
6373;DHT22;3219;51.362;7.074;2023-05-02T01:16:42;11.80;99.90
6373;DHT22;3219;51.362;7.074;2023-05-02T01:19:21;11.80;99.90
6373;DHT22;3219;51.362;7.074;2023-05-02T01:21:51;11.80;99.90
6373;DHT22;3219;51.362;7.074;2023-05-02T01:24:24;11.70;99.90
6373;DHT22;3219;51.362;7.074;2023-05-02T01:26:59;11.60;99.90
6373;DHT22;3219;51.362;7.074;2023-05-02T01:29:28;11.60;99.90
6373;DHT22;3219;51.362;7.074;2023-05-02T01:31:57;11.60;99.90
6373;DHT22;3219;51.362;7.074;2023-05-02T01:34:27;11.50;99.90
6373;DHT22;3219;51.362;7.074;2023-05-02T01:36:56;11.50;99.90
6373;DHT22;3219;51.362;7.074;2023-05-02T01:39:25;11.40;99.90
6373;DHT22;3219;51.362;7.074;2023-05-02T01:41:54;11.40;99.90
6373;DHT22;3219;51.362;7.074;2023-05-02T01:44:23;11.40;99.90
6373;DHT22;3219;51.362;7.074;2023-05-02T01:46:54;11.40;99.90
6373;DHT22;3219;51.362;7.074;2023-05-02T01:49:22;11.40;99.90
6373;DHT22;3219;51.362;7.074;2023-05-02T01:51:50;11.40;99.90
6373;DHT22;3219;51.362;7.074;2023-05-02T01:54:20;11.40;99.90
6373;DHT22;3219;51.362;7.074;2023-05-02T01:56:48;11.50;99.90
6373;DHT22;3219;51.362;7.074;2023-05-02T01:59:17;11.50;99.90
6373;DHT22;3219;51.362;7.074;2023-05-02T02:01:45;11.30;99.90
6373;DHT22;3219;51.362;7.074;2023-05-02T02:04:15;11.30;99.90
6373;DHT22;3219;51.362;7.074;2023-05-02T02:06:47;11.20;99.90
6373;DHT22;3219;51.362;7.074;2023-05-02T02:09:16;11.10;99.90
6373;DHT22;3219;51.362;7.074;2023-05-02T02:11:47;11.10;99.90
6373;DHT22;3219;51.362;7.074;2023-05-02T02:14:19;11.10;99.90
6373;DHT22;3219;51.362;7.074;2023-05-02T02:16:47;11.10;99.90
6373;DHT22;3219;51.362;7.074;2023-05-02T02:19:17;11.10;99.90
6373;DHT22;3219;51.362;7.074;2023-05-02T02:21:46;11.10;99.90
6373;DHT22;3219;51.362;7.074;2023-05-02T02:24:16;11.10;99.90
6373;DHT22;3219;51.362;7.074;2023-05-02T02:26:44;11.10;99.90
6373;DHT22;3219;51.362;7.074;2023-05-02T02:29:11;11.10;99.90
6373;DHT22;3219;51.362;7.074;2023-05-02T02:31:38;11.00;99.90
6373;DHT22;3219;51.362;7.074;2023-05-02T02:34:05;11.00;99.90
6373;DHT22;3219;51.362;7.074;2023-05-02T02:36:39;11.00;99.90
6373;DHT22;3219;51.362;7.074;2023-05-02T02:39:17;11.00;99.90
6373;DHT22;3219;51.362;7.074;2023-05-02T02:41:52;11.00;99.90
6373;DHT22;3219;51.362;7.074;2023-05-02T02:44:30;11.00;99.90
6373;DHT22;3219;51.362;7.074;2023-05-02T02:47:05;11.10;99.90
6373;DHT22;3219;51.362;7.074;2023-05-02T02:49:46;11.10;99.90
6373;DHT22;3219;51.362;7.074;2023-05-02T02:52:20;11.10;99.90
6373;DHT22;3219;51.362;7.074;2023-05-02T02:54:51;11.10;99.90
6373;DHT22;3219;51.362;7.074;2023-05-02T02:57:26;11.10;99.90
6373;DHT22;3219;51.362;7.074;2023-05-02T03:00:00;11.10;99.90
6373;DHT22;3219;51.362;7.074;2023-05-02T03:02:31;11.10;99.90
6373;DHT22;3219;51.362;7.074;2023-05-02T03:05:00;11.10;99.90
6373;DHT22;3219;51.362;7.074;2023-05-02T03:07:29;11.00;99.90
6373;DHT22;3219;51.362;7.074;2023-05-02T03:09:57;11.00;99.90
6373;DHT22;3219;51.362;7.074;2023-05-02T03:12:24;11.10;99.90
6373;DHT22;3219;51.362;7.074;2023-05-02T03:14:50;11.00;99.90
6373;DHT22;3219;51.362;7.074;2023-05-02T03:17:17;11.00;99.90
6373;DHT22;3219;51.362;7.074;2023-05-02T03:19:44;10.90;99.90
6373;DHT22;3219;51.362;7.074;2023-05-02T03:22:11;11.00;99.90
6373;DHT22;3219;51.362;7.074;2023-05-02T03:24:39;11.00;99.90
6373;DHT22;3219;51.362;7.074;2023-05-02T03:27:06;11.00;99.90
6373;DHT22;3219;51.362;7.074;2023-05-02T03:29:33;11.10;99.90
6373;DHT22;3219;51.362;7.074;2023-05-02T03:32:00;11.00;99.90
6373;DHT22;3219;51.362;7.074;2023-05-02T03:34:27;10.90;99.90
6373;DHT22;3219;51.362;7.074;2023-05-02T03:36:54;10.90;99.90
6373;DHT22;3219;51.362;7.074;2023-05-02T03:39:21;10.90;99.90
6373;DHT22;3219;51.362;7.074;2023-05-02T03:41:49;10.90;99.90
6373;DHT22;3219;51.362;7.074;2023-05-02T03:44:16;10.90;99.90
6373;DHT22;3219;51.362;7.074;2023-05-02T03:46:42;10.80;99.90
6373;DHT22;3219;51.362;7.074;2023-05-02T03:49:09;10.90;99.90
6373;DHT22;3219;51.362;7.074;2023-05-02T03:51:36;10.90;99.90
6373;DHT22;3219;51.362;7.074;2023-05-02T03:54:03;10.90;99.90
6373;DHT22;3219;51.362;7.074;2023-05-02T03:56:30;10.90;99.90
6373;DHT22;3219;51.362;7.074;2023-05-02T03:58:58;11.00;99.90
6373;DHT22;3219;51.362;7.074;2023-05-02T04:01:25;11.00;99.90
6373;DHT22;3219;51.362;7.074;2023-05-02T04:03:52;11.00;99.90
6373;DHT22;3219;51.362;7.074;2023-05-02T04:06:19;11.00;99.90
6373;DHT22;3219;51.362;7.074;2023-05-02T04:08:46;11.10;99.90
6373;DHT22;3219;51.362;7.074;2023-05-02T04:11:12;11.10;99.90
6373;DHT22;3219;51.362;7.074;2023-05-02T04:13:39;11.10;99.90
6373;DHT22;3219;51.362;7.074;2023-05-02T04:16:08;11.10;99.90
6373;DHT22;3219;51.362;7.074;2023-05-02T04:18:34;11.20;99.90
6373;DHT22;3219;51.362;7.074;2023-05-02T04:21:01;11.20;99.90
6373;DHT22;3219;51.362;7.074;2023-05-02T04:23:28;11.20;99.90
6373;DHT22;3219;51.362;7.074;2023-05-02T04:25:55;11.20;99.90
6373;DHT22;3219;51.362;7.074;2023-05-02T04:28:22;11.30;99.90
6373;DHT22;3219;51.362;7.074;2023-05-02T04:30:48;11.30;99.90
6373;DHT22;3219;51.362;7.074;2023-05-02T04:33:17;11.30;99.90
6373;DHT22;3219;51.362;7.074;2023-05-02T04:35:44;11.30;99.90
6373;DHT22;3219;51.362;7.074;2023-05-02T04:38:11;11.30;99.90
6373;DHT22;3219;51.362;7.074;2023-05-02T04:40:38;11.30;99.90
6373;DHT22;3219;51.362;7.074;2023-05-02T04:43:05;11.30;99.90
6373;DHT22;3219;51.362;7.074;2023-05-02T04:45:33;11.30;99.90
6373;DHT22;3219;51.362;7.074;2023-05-02T04:48:00;11.30;99.90
6373;DHT22;3219;51.362;7.074;2023-05-02T04:50:28;11.30;99.90
6373;DHT22;3219;51.362;7.074;2023-05-02T04:52:56;11.30;99.90
6373;DHT22;3219;51.362;7.074;2023-05-02T04:55:23;11.30;99.90
6373;DHT22;3219;51.362;7.074;2023-05-02T04:57:50;11.30;99.90
6373;DHT22;3219;51.362;7.074;2023-05-02T05:00:17;11.30;99.90
6373;DHT22;3219;51.362;7.074;2023-05-02T05:02:44;11.30;99.90
6373;DHT22;3219;51.362;7.074;2023-05-02T05:05:10;11.30;99.90
6373;DHT22;3219;51.362;7.074;2023-05-02T05:07:38;11.30;99.90
6373;DHT22;3219;51.362;7.074;2023-05-02T05:10:06;11.30;99.90
6373;DHT22;3219;51.362;7.074;2023-05-02T05:12:35;11.20;99.90
6373;DHT22;3219;51.362;7.074;2023-05-02T05:15:02;11.20;99.90
6373;DHT22;3219;51.362;7.074;2023-05-02T05:17:29;11.20;99.90
6373;DHT22;3219;51.362;7.074;2023-05-02T05:19:56;11.20;99.90
6373;DHT22;3219;51.362;7.074;2023-05-02T05:22:23;11.20;99.90
6373;DHT22;3219;51.362;7.074;2023-05-02T05:24:54;11.30;99.90
6373;DHT22;3219;51.362;7.074;2023-05-02T05:27:20;11.20;99.90
6373;DHT22;3219;51.362;7.074;2023-05-02T05:29:47;11.20;99.90
6373;DHT22;3219;51.362;7.074;2023-05-02T05:32:14;11.20;99.90
6373;DHT22;3219;51.362;7.074;2023-05-02T05:34:41;11.10;99.90
6373;DHT22;3219;51.362;7.074;2023-05-02T05:37:07;11.10;99.90
6373;DHT22;3219;51.362;7.074;2023-05-02T05:39:34;11.00;99.90
6373;DHT22;3219;51.362;7.074;2023-05-02T05:42:02;11.00;99.90
6373;DHT22;3219;51.362;7.074;2023-05-02T05:44:30;10.90;99.90
6373;DHT22;3219;51.362;7.074;2023-05-02T05:46:57;10.80;99.90
6373;DHT22;3219;51.362;7.074;2023-05-02T05:49:23;10.80;99.90
6373;DHT22;3219;51.362;7.074;2023-05-02T05:51:50;10.80;99.90
6373;DHT22;3219;51.362;7.074;2023-05-02T05:54:17;10.70;99.90
6373;DHT22;3219;51.362;7.074;2023-05-02T05:56:44;10.60;99.90
6373;DHT22;3219;51.362;7.074;2023-05-02T05:59:12;10.50;99.90
6373;DHT22;3219;51.362;7.074;2023-05-02T06:01:39;10.40;99.90
6373;DHT22;3219;51.362;7.074;2023-05-02T06:04:06;10.40;99.90
6373;DHT22;3219;51.362;7.074;2023-05-02T06:06:33;10.40;99.90
6373;DHT22;3219;51.362;7.074;2023-05-02T06:09:00;10.40;99.90
6373;DHT22;3219;51.362;7.074;2023-05-02T06:11:27;10.40;99.90
6373;DHT22;3219;51.362;7.074;2023-05-02T06:13:53;10.40;99.90
6373;DHT22;3219;51.362;7.074;2023-05-02T06:16:22;10.50;99.90
6373;DHT22;3219;51.362;7.074;2023-05-02T06:18:50;10.60;99.90
6373;DHT22;3219;51.362;7.074;2023-05-02T06:21:16;10.60;99.90
6373;DHT22;3219;51.362;7.074;2023-05-02T06:23:43;10.60;99.90
6373;DHT22;3219;51.362;7.074;2023-05-02T06:26:10;10.60;99.90
6373;DHT22;3219;51.362;7.074;2023-05-02T06:28:37;10.60;99.90
6373;DHT22;3219;51.362;7.074;2023-05-02T06:31:04;10.70;99.90
6373;DHT22;3219;51.362;7.074;2023-05-02T06:33:33;10.60;99.90
6373;DHT22;3219;51.362;7.074;2023-05-02T06:36:00;10.70;99.90
6373;DHT22;3219;51.362;7.074;2023-05-02T06:38:27;10.70;99.90
6373;DHT22;3219;51.362;7.074;2023-05-02T06:43:24;10.70;99.90
6373;DHT22;3219;51.362;7.074;2023-05-02T06:45:52;10.80;99.90
6373;DHT22;3219;51.362;7.074;2023-05-02T06:48:19;10.80;99.90
6373;DHT22;3219;51.362;7.074;2023-05-02T06:50:48;10.80;99.90
6373;DHT22;3219;51.362;7.074;2023-05-02T06:53:16;10.80;99.90
6373;DHT22;3219;51.362;7.074;2023-05-02T06:55:43;10.90;99.90
6373;DHT22;3219;51.362;7.074;2023-05-02T06:58:11;10.90;99.90
6373;DHT22;3219;51.362;7.074;2023-05-02T07:00:38;11.00;99.90
6373;DHT22;3219;51.362;7.074;2023-05-02T07:03:05;11.10;99.90
6373;DHT22;3219;51.362;7.074;2023-05-02T07:05:31;11.00;99.90
6373;DHT22;3219;51.362;7.074;2023-05-02T07:07:59;11.10;99.90
6373;DHT22;3219;51.362;7.074;2023-05-02T07:10:26;11.20;99.90
6373;DHT22;3219;51.362;7.074;2023-05-02T07:12:53;11.30;99.90
6373;DHT22;3219;51.362;7.074;2023-05-02T07:15:20;11.40;99.90
6373;DHT22;3219;51.362;7.074;2023-05-02T07:17:46;11.40;99.90
6373;DHT22;3219;51.362;7.074;2023-05-02T07:20:14;11.50;99.90
6373;DHT22;3219;51.362;7.074;2023-05-02T07:22:41;11.50;99.90
6373;DHT22;3219;51.362;7.074;2023-05-02T07:25:09;11.60;99.90
6373;DHT22;3219;51.362;7.074;2023-05-02T07:27:36;11.60;99.90
6373;DHT22;3219;51.362;7.074;2023-05-02T07:30:04;11.60;99.90
6373;DHT22;3219;51.362;7.074;2023-05-02T07:32:31;11.70;99.90
6373;DHT22;3219;51.362;7.074;2023-05-02T07:34:57;11.60;99.90
6373;DHT22;3219;51.362;7.074;2023-05-02T07:37:24;11.60;99.90
6373;DHT22;3219;51.362;7.074;2023-05-02T07:39:51;11.50;99.90
6373;DHT22;3219;51.362;7.074;2023-05-02T07:42:19;11.50;99.90
6373;DHT22;3219;51.362;7.074;2023-05-02T07:44:46;11.40;99.90
6373;DHT22;3219;51.362;7.074;2023-05-02T07:47:12;11.40;99.90
6373;DHT22;3219;51.362;7.074;2023-05-02T07:49:39;11.30;99.90
6373;DHT22;3219;51.362;7.074;2023-05-02T07:52:06;11.20;99.90
6373;DHT22;3219;51.362;7.074;2023-05-02T07:54:32;11.00;99.90
6373;DHT22;3219;51.362;7.074;2023-05-02T07:57:00;10.80;99.90
6373;DHT22;3219;51.362;7.074;2023-05-02T07:59:30;10.70;99.90
6373;DHT22;3219;51.362;7.074;2023-05-02T08:01:57;10.70;99.90
6373;DHT22;3219;51.362;7.074;2023-05-02T08:04:23;10.60;99.90
6373;DHT22;3219;51.362;7.074;2023-05-02T08:06:50;10.60;99.90
6373;DHT22;3219;51.362;7.074;2023-05-02T08:09:17;10.40;99.90
6373;DHT22;3219;51.362;7.074;2023-05-02T08:11:44;10.30;99.90
6373;DHT22;3219;51.362;7.074;2023-05-02T08:14:11;10.20;99.90
6373;DHT22;3219;51.362;7.074;2023-05-02T08:16:39;10.10;99.90
6373;DHT22;3219;51.362;7.074;2023-05-02T08:19:05;10.10;99.90
6373;DHT22;3219;51.362;7.074;2023-05-02T08:21:32;10.10;99.90
6373;DHT22;3219;51.362;7.074;2023-05-02T08:23:59;10.10;99.90
6373;DHT22;3219;51.362;7.074;2023-05-02T08:26:27;10.20;99.90
6373;DHT22;3219;51.362;7.074;2023-05-02T08:28:54;10.10;99.90
6373;DHT22;3219;51.362;7.074;2023-05-02T08:31:20;10.10;99.90
6373;DHT22;3219;51.362;7.074;2023-05-02T08:33:48;10.00;99.90
6373;DHT22;3219;51.362;7.074;2023-05-02T08:36:16;10.00;99.90
6373;DHT22;3219;51.362;7.074;2023-05-02T08:38:44;10.00;99.90
6373;DHT22;3219;51.362;7.074;2023-05-02T08:41:12;10.10;99.90
6373;DHT22;3219;51.362;7.074;2023-05-02T08:43:39;10.20;99.90
6373;DHT22;3219;51.362;7.074;2023-05-02T08:46:06;10.20;99.90
6373;DHT22;3219;51.362;7.074;2023-05-02T08:48:36;10.20;99.90
6373;DHT22;3219;51.362;7.074;2023-05-02T08:51:07;10.20;99.90
6373;DHT22;3219;51.362;7.074;2023-05-02T08:53:35;10.30;99.90
6373;DHT22;3219;51.362;7.074;2023-05-02T08:56:02;10.30;99.90
6373;DHT22;3219;51.362;7.074;2023-05-02T08:58:29;10.40;99.90
6373;DHT22;3219;51.362;7.074;2023-05-02T09:00:57;10.50;99.90
6373;DHT22;3219;51.362;7.074;2023-05-02T09:03:28;10.50;99.90
6373;DHT22;3219;51.362;7.074;2023-05-02T09:06:07;10.60;99.90
6373;DHT22;3219;51.362;7.074;2023-05-02T09:08:35;10.40;99.90
6373;DHT22;3219;51.362;7.074;2023-05-02T09:11:02;10.30;99.90
6373;DHT22;3219;51.362;7.074;2023-05-02T09:13:30;10.00;99.90
6373;DHT22;3219;51.362;7.074;2023-05-02T09:15:58;9.90;99.90
6373;DHT22;3219;51.362;7.074;2023-05-02T09:18:30;9.70;99.90
6373;DHT22;3219;51.362;7.074;2023-05-02T09:20:58;9.60;99.90
6373;DHT22;3219;51.362;7.074;2023-05-02T09:23:38;9.40;99.90
6373;DHT22;3219;51.362;7.074;2023-05-02T09:26:13;9.30;99.90
6373;DHT22;3219;51.362;7.074;2023-05-02T09:28:41;9.20;99.90
6373;DHT22;3219;51.362;7.074;2023-05-02T09:31:10;9.10;99.90
6373;DHT22;3219;51.362;7.074;2023-05-02T09:33:37;9.10;99.90
6373;DHT22;3219;51.362;7.074;2023-05-02T09:36:05;9.20;99.90
6373;DHT22;3219;51.362;7.074;2023-05-02T09:38:32;9.10;99.90
6373;DHT22;3219;51.362;7.074;2023-05-02T09:41:01;9.20;99.90
6373;DHT22;3219;51.362;7.074;2023-05-02T09:43:29;9.20;99.90
6373;DHT22;3219;51.362;7.074;2023-05-02T09:45:57;9.30;99.90
6373;DHT22;3219;51.362;7.074;2023-05-02T09:48:25;9.30;99.90
6373;DHT22;3219;51.362;7.074;2023-05-02T09:50:53;9.40;99.90
6373;DHT22;3219;51.362;7.074;2023-05-02T09:53:20;9.50;99.90
6373;DHT22;3219;51.362;7.074;2023-05-02T09:55:47;9.60;99.90
6373;DHT22;3219;51.362;7.074;2023-05-02T09:58:22;9.60;99.90
6373;DHT22;3219;51.362;7.074;2023-05-02T10:00:50;9.50;99.90
6373;DHT22;3219;51.362;7.074;2023-05-02T10:03:17;9.50;99.90
6373;DHT22;3219;51.362;7.074;2023-05-02T10:05:46;9.50;99.90
6373;DHT22;3219;51.362;7.074;2023-05-02T10:08:13;9.50;99.90
6373;DHT22;3219;51.362;7.074;2023-05-02T10:10:46;9.50;99.90
6373;DHT22;3219;51.362;7.074;2023-05-02T10:13:12;9.60;99.90
6373;DHT22;3219;51.362;7.074;2023-05-02T10:15:43;9.60;99.90
6373;DHT22;3219;51.362;7.074;2023-05-02T10:18:12;9.60;99.90
6373;DHT22;3219;51.362;7.074;2023-05-02T10:20:43;9.80;99.90
6373;DHT22;3219;51.362;7.074;2023-05-02T10:23:14;9.90;99.90
6373;DHT22;3219;51.362;7.074;2023-05-02T10:25:41;10.00;99.90
6373;DHT22;3219;51.362;7.074;2023-05-02T10:28:09;10.00;99.90
6373;DHT22;3219;51.362;7.074;2023-05-02T10:30:37;10.10;99.90
6373;DHT22;3219;51.362;7.074;2023-05-02T10:33:06;10.30;99.90
6373;DHT22;3219;51.362;7.074;2023-05-02T10:35:35;10.40;99.90
6373;DHT22;3219;51.362;7.074;2023-05-02T10:38:02;10.60;99.90
6373;DHT22;3219;51.362;7.074;2023-05-02T10:40:31;10.80;99.90
6373;DHT22;3219;51.362;7.074;2023-05-02T10:42:58;11.10;99.90
6373;DHT22;3219;51.362;7.074;2023-05-02T10:45:32;11.40;99.90
6373;DHT22;3219;51.362;7.074;2023-05-02T10:48:16;11.40;99.90
6373;DHT22;3219;51.362;7.074;2023-05-02T10:50:45;11.70;99.90
6373;DHT22;3219;51.362;7.074;2023-05-02T10:53:29;12.00;99.90
6373;DHT22;3219;51.362;7.074;2023-05-02T10:56:14;12.50;99.90
6373;DHT22;3219;51.362;7.074;2023-05-02T10:58:42;12.70;99.90
6373;DHT22;3219;51.362;7.074;2023-05-02T11:01:31;12.90;99.90
6373;DHT22;3219;51.362;7.074;2023-05-02T11:04:00;12.70;99.90
6373;DHT22;3219;51.362;7.074;2023-05-02T11:06:28;12.60;99.90
6373;DHT22;3219;51.362;7.074;2023-05-02T11:09:29;12.40;99.90
6373;DHT22;3219;51.362;7.074;2023-05-02T11:11:56;12.30;99.90
6373;DHT22;3219;51.362;7.074;2023-05-02T11:14:45;12.30;99.90
6373;DHT22;3219;51.362;7.074;2023-05-02T11:17:13;12.30;99.90
6373;DHT22;3219;51.362;7.074;2023-05-02T11:22:45;12.10;99.90
6373;DHT22;3219;51.362;7.074;2023-05-02T11:25:36;11.90;99.90
6373;DHT22;3219;51.362;7.074;2023-05-02T11:28:05;11.70;99.90
6373;DHT22;3219;51.362;7.074;2023-05-02T11:30:43;11.60;99.90
6373;DHT22;3219;51.362;7.074;2023-05-02T11:33:16;11.40;99.90
6373;DHT22;3219;51.362;7.074;2023-05-02T11:35:45;11.40;99.90
6373;DHT22;3219;51.362;7.074;2023-05-02T11:38:23;11.20;99.90
6373;DHT22;3219;51.362;7.074;2023-05-02T11:40:56;11.30;99.90
6373;DHT22;3219;51.362;7.074;2023-05-02T11:43:24;11.30;99.90
6373;DHT22;3219;51.362;7.074;2023-05-02T11:45:52;11.30;99.90
6373;DHT22;3219;51.362;7.074;2023-05-02T11:48:20;11.30;99.90
6373;DHT22;3219;51.362;7.074;2023-05-02T11:50:49;11.40;99.90
6373;DHT22;3219;51.362;7.074;2023-05-02T11:53:19;11.40;99.90
6373;DHT22;3219;51.362;7.074;2023-05-02T11:55:49;11.60;99.90
6373;DHT22;3219;51.362;7.074;2023-05-02T11:58:17;11.60;99.90
6373;DHT22;3219;51.362;7.074;2023-05-02T12:00:45;11.80;99.90
6373;DHT22;3219;51.362;7.074;2023-05-02T12:03:23;12.00;99.90
6373;DHT22;3219;51.362;7.074;2023-05-02T12:05:50;12.10;99.90
6373;DHT22;3219;51.362;7.074;2023-05-02T12:08:24;12.10;99.70
6373;DHT22;3219;51.362;7.074;2023-05-02T12:10:53;12.20;99.10
6373;DHT22;3219;51.362;7.074;2023-05-02T12:13:22;12.30;99.30
6373;DHT22;3219;51.362;7.074;2023-05-02T12:15:50;12.40;98.90
6373;DHT22;3219;51.362;7.074;2023-05-02T12:18:18;12.60;98.70
6373;DHT22;3219;51.362;7.074;2023-05-02T12:20:48;12.60;98.50
6373;DHT22;3219;51.362;7.074;2023-05-02T12:23:15;12.80;98.20
6373;DHT22;3219;51.362;7.074;2023-05-02T12:25:43;12.90;98.10
6373;DHT22;3219;51.362;7.074;2023-05-02T12:28:10;13.00;97.70
6373;DHT22;3219;51.362;7.074;2023-05-02T12:30:38;13.20;97.50
6373;DHT22;3219;51.362;7.074;2023-05-02T12:33:06;13.30;97.50
6373;DHT22;3219;51.362;7.074;2023-05-02T12:35:34;13.40;96.10
6373;DHT22;3219;51.362;7.074;2023-05-02T12:38:11;13.40;95.60
6373;DHT22;3219;51.362;7.074;2023-05-02T12:40:47;13.50;95.60
6373;DHT22;3219;51.362;7.074;2023-05-02T12:43:14;13.50;93.80
6373;DHT22;3219;51.362;7.074;2023-05-02T12:45:41;13.40;94.40
6373;DHT22;3219;51.362;7.074;2023-05-02T12:48:25;13.30;94.50
6373;DHT22;3219;51.362;7.074;2023-05-02T12:50:53;13.40;95.20
6373;DHT22;3219;51.362;7.074;2023-05-02T12:53:39;13.40;94.50
6373;DHT22;3219;51.362;7.074;2023-05-02T12:56:09;13.40;94.20
6373;DHT22;3219;51.362;7.074;2023-05-02T12:58:43;13.40;94.40
6373;DHT22;3219;51.362;7.074;2023-05-02T13:01:11;13.50;97.20
6373;DHT22;3219;51.362;7.074;2023-05-02T13:03:38;13.50;95.90
6373;DHT22;3219;51.362;7.074;2023-05-02T13:06:05;13.60;94.90
6373;DHT22;3219;51.362;7.074;2023-05-02T13:08:32;13.60;95.00
6373;DHT22;3219;51.362;7.074;2023-05-02T13:10:59;13.70;95.40
6373;DHT22;3219;51.362;7.074;2023-05-02T13:13:27;13.80;95.20
6373;DHT22;3219;51.362;7.074;2023-05-02T13:15:54;13.90;94.80
6373;DHT22;3219;51.362;7.074;2023-05-02T13:18:21;14.00;94.10
6373;DHT22;3219;51.362;7.074;2023-05-02T13:20:48;14.00;94.30
6373;DHT22;3219;51.362;7.074;2023-05-02T13:23:15;14.10;94.20
6373;DHT22;3219;51.362;7.074;2023-05-02T13:25:42;14.10;93.00
6373;DHT22;3219;51.362;7.074;2023-05-02T13:28:09;14.10;90.90
6373;DHT22;3219;51.362;7.074;2023-05-02T13:30:37;13.90;92.30
6373;DHT22;3219;51.362;7.074;2023-05-02T13:33:04;13.80;92.40
6373;DHT22;3219;51.362;7.074;2023-05-02T13:35:30;13.80;92.90
6373;DHT22;3219;51.362;7.074;2023-05-02T13:37:57;13.80;92.60
6373;DHT22;3219;51.362;7.074;2023-05-02T13:40:24;13.80;92.30
6373;DHT22;3219;51.362;7.074;2023-05-02T13:42:51;13.80;92.80
6373;DHT22;3219;51.362;7.074;2023-05-02T13:45:18;13.80;93.10
6373;DHT22;3219;51.362;7.074;2023-05-02T13:47:46;13.70;92.00
6373;DHT22;3219;51.362;7.074;2023-05-02T13:50:13;13.50;91.00
6373;DHT22;3219;51.362;7.074;2023-05-02T13:52:39;13.40;92.10
6373;DHT22;3219;51.362;7.074;2023-05-02T13:55:07;13.30;91.70
6373;DHT22;3219;51.362;7.074;2023-05-02T13:57:34;13.30;93.20
6373;DHT22;3219;51.362;7.074;2023-05-02T14:00:00;13.40;93.80
6373;DHT22;3219;51.362;7.074;2023-05-02T14:02:28;13.50;93.40
6373;DHT22;3219;51.362;7.074;2023-05-02T14:04:56;13.60;92.80
6373;DHT22;3219;51.362;7.074;2023-05-02T14:07:23;13.80;93.30
6373;DHT22;3219;51.362;7.074;2023-05-02T14:09:50;13.90;91.90
6373;DHT22;3219;51.362;7.074;2023-05-02T14:12:16;13.90;92.90
6373;DHT22;3219;51.362;7.074;2023-05-02T14:14:43;13.90;92.40
6373;DHT22;3219;51.362;7.074;2023-05-02T14:17:10;13.90;91.30
6373;DHT22;3219;51.362;7.074;2023-05-02T14:19:36;13.80;91.80
6373;DHT22;3219;51.362;7.074;2023-05-02T14:22:04;13.70;92.20
6373;DHT22;3219;51.362;7.074;2023-05-02T14:24:31;13.60;91.80
6373;DHT22;3219;51.362;7.074;2023-05-02T14:26:58;13.50;91.50
6373;DHT22;3219;51.362;7.074;2023-05-02T14:29:25;13.40;91.30
6373;DHT22;3219;51.362;7.074;2023-05-02T14:31:52;13.30;91.20
6373;DHT22;3219;51.362;7.074;2023-05-02T14:34:19;13.30;91.50
6373;DHT22;3219;51.362;7.074;2023-05-02T14:36:46;13.30;91.20
6373;DHT22;3219;51.362;7.074;2023-05-02T14:39:14;13.30;91.40
6373;DHT22;3219;51.362;7.074;2023-05-02T14:41:41;13.20;91.50
6373;DHT22;3219;51.362;7.074;2023-05-02T14:44:08;13.20;90.70
6373;DHT22;3219;51.362;7.074;2023-05-02T14:46:35;13.10;91.40
6373;DHT22;3219;51.362;7.074;2023-05-02T14:49:02;13.00;91.40
6373;DHT22;3219;51.362;7.074;2023-05-02T14:51:28;12.90;91.10
6373;DHT22;3219;51.362;7.074;2023-05-02T14:53:56;12.90;91.90
6373;DHT22;3219;51.362;7.074;2023-05-02T14:56:24;12.90;91.40
6373;DHT22;3219;51.362;7.074;2023-05-02T14:58:51;12.90;91.60
6373;DHT22;3219;51.362;7.074;2023-05-02T15:01:18;13.00;91.90
6373;DHT22;3219;51.362;7.074;2023-05-02T15:03:45;13.20;91.90
6373;DHT22;3219;51.362;7.074;2023-05-02T15:06:14;13.30;91.60
6373;DHT22;3219;51.362;7.074;2023-05-02T15:08:41;13.40;92.00
6373;DHT22;3219;51.362;7.074;2023-05-02T15:11:09;13.60;92.10
6373;DHT22;3219;51.362;7.074;2023-05-02T15:13:37;13.80;91.40
6373;DHT22;3219;51.362;7.074;2023-05-02T15:16:04;13.90;90.60
6373;DHT22;3219;51.362;7.074;2023-05-02T15:18:31;14.00;91.10
6373;DHT22;3219;51.362;7.074;2023-05-02T15:20:58;13.90;90.70
6373;DHT22;3219;51.362;7.074;2023-05-02T15:23:25;13.90;90.80
6373;DHT22;3219;51.362;7.074;2023-05-02T15:25:51;13.80;92.30
6373;DHT22;3219;51.362;7.074;2023-05-02T15:28:18;13.80;90.40
6373;DHT22;3219;51.362;7.074;2023-05-02T15:30:46;13.70;90.20
6373;DHT22;3219;51.362;7.074;2023-05-02T15:33:13;13.60;90.60
6373;DHT22;3219;51.362;7.074;2023-05-02T15:35:53;13.50;91.20
6373;DHT22;3219;51.362;7.074;2023-05-02T15:38:20;13.60;91.60
6373;DHT22;3219;51.362;7.074;2023-05-02T15:40:52;13.60;91.00
6373;DHT22;3219;51.362;7.074;2023-05-02T15:43:19;13.80;91.20
6373;DHT22;3219;51.362;7.074;2023-05-02T15:45:50;13.80;90.30
6373;DHT22;3219;51.362;7.074;2023-05-02T15:48:18;13.80;90.70
6373;DHT22;3219;51.362;7.074;2023-05-02T15:50:45;13.80;91.30
6373;DHT22;3219;51.362;7.074;2023-05-02T15:53:12;13.90;90.80
6373;DHT22;3219;51.362;7.074;2023-05-02T15:55:39;13.80;90.70
6373;DHT22;3219;51.362;7.074;2023-05-02T15:58:06;13.80;90.50
6373;DHT22;3219;51.362;7.074;2023-05-02T16:00:33;13.80;91.40
6373;DHT22;3219;51.362;7.074;2023-05-02T16:03:01;13.70;91.50
6373;DHT22;3219;51.362;7.074;2023-05-02T16:05:28;13.70;91.20
6373;DHT22;3219;51.362;7.074;2023-05-02T16:07:55;13.70;91.40
6373;DHT22;3219;51.362;7.074;2023-05-02T16:10:22;13.80;91.00
6373;DHT22;3219;51.362;7.074;2023-05-02T16:12:49;13.80;91.10
6373;DHT22;3219;51.362;7.074;2023-05-02T16:15:16;13.70;90.50
6373;DHT22;3219;51.362;7.074;2023-05-02T16:17:42;13.70;91.10